sensor_id;sensor_type;location;lat;lon;timestamp;pressure;altitude;pressure_sealevel;temperature;humidity
56821;BME280;42702;50.178;20.992;2022-07-24T00:01:36;99257.95;;;22.00;72.78
56821;BME280;42702;50.178;20.992;2022-07-24T00:04:05;99254.73;;;21.93;72.76
56821;BME280;42702;50.178;20.992;2022-07-24T00:06:34;99253.46;;;21.90;72.92
56821;BME280;42702;50.178;20.992;2022-07-24T00:09:04;99248.89;;;21.93;73.04
56821;BME280;42702;50.178;20.992;2022-07-24T00:11:33;99257.56;;;21.93;73.09
56821;BME280;42702;50.178;20.992;2022-07-24T00:14:02;99256.34;;;21.86;73.12
56821;BME280;42702;50.178;20.992;2022-07-24T00:16:37;99260.22;;;21.80;73.24
56821;BME280;42702;50.178;20.992;2022-07-24T00:19:05;99258.83;;;21.73;73.21
56821;BME280;42702;50.178;20.992;2022-07-24T00:21:34;99253.25;;;21.71;73.59
56821;BME280;42702;50.178;20.992;2022-07-24T00:24:03;99257.70;;;21.77;73.44
56821;BME280;42702;50.178;20.992;2022-07-24T00:26:31;99268.30;;;21.78;73.33
56821;BME280;42702;50.178;20.992;2022-07-24T00:29:00;99271.45;;;21.79;73.53
56821;BME280;42702;50.178;20.992;2022-07-24T00:31:28;99269.49;;;21.79;73.69
56821;BME280;42702;50.178;20.992;2022-07-24T00:34:00;99270.64;;;21.81;73.46
56821;BME280;42702;50.178;20.992;2022-07-24T00:36:28;99276.24;;;21.79;73.41
56821;BME280;42702;50.178;20.992;2022-07-24T00:38:56;99275.23;;;21.78;73.45
56821;BME280;42702;50.178;20.992;2022-07-24T00:41:24;99270.66;;;21.77;73.53
56821;BME280;42702;50.178;20.992;2022-07-24T00:44:11;99273.18;;;21.73;73.59
56821;BME280;42702;50.178;20.992;2022-07-24T00:46:42;99274.88;;;21.71;73.53
56821;BME280;42702;50.178;20.992;2022-07-24T00:49:14;99274.95;;;21.69;73.49
56821;BME280;42702;50.178;20.992;2022-07-24T00:51:50;99276.14;;;21.67;73.26
56821;BME280;42702;50.178;20.992;2022-07-24T00:54:20;99281.30;;;21.67;73.37
56821;BME280;42702;50.178;20.992;2022-07-24T00:56:50;99284.21;;;21.62;73.34
56821;BME280;42702;50.178;20.992;2022-07-24T00:59:19;99285.44;;;21.55;73.43
56821;BME280;42702;50.178;20.992;2022-07-24T01:01:48;99285.30;;;21.55;73.42
56821;BME280;42702;50.178;20.992;2022-07-24T01:04:18;99288.52;;;21.51;73.46
56821;BME280;42702;50.178;20.992;2022-07-24T01:06:47;99287.99;;;21.47;73.35
56821;BME280;42702;50.178;20.992;2022-07-24T01:09:16;99279.07;;;21.42;73.61
56821;BME280;42702;50.178;20.992;2022-07-24T01:11:44;99278.21;;;21.36;73.55
56821;BME280;42702;50.178;20.992;2022-07-24T01:14:14;99275.96;;;21.31;73.75
56821;BME280;42702;50.178;20.992;2022-07-24T01:16:44;99277.45;;;21.30;73.83
56821;BME280;42702;50.178;20.992;2022-07-24T01:19:13;99282.55;;;21.31;73.77
56821;BME280;42702;50.178;20.992;2022-07-24T01:21:49;99282.64;;;21.33;73.69
56821;BME280;42702;50.178;20.992;2022-07-24T01:24:18;99275.06;;;21.28;73.60
56821;BME280;42702;50.178;20.992;2022-07-24T01:26:47;99272.09;;;21.24;73.72
56821;BME280;42702;50.178;20.992;2022-07-24T01:29:16;99266.58;;;21.20;73.73
56821;BME280;42702;50.178;20.992;2022-07-24T01:31:44;99266.62;;;21.20;73.85
56821;BME280;42702;50.178;20.992;2022-07-24T01:34:12;99271.29;;;21.22;73.74
56821;BME280;42702;50.178;20.992;2022-07-24T01:36:41;99277.64;;;21.26;73.63
56821;BME280;42702;50.178;20.992;2022-07-24T01:39:09;99275.33;;;21.26;73.67
56821;BME280;42702;50.178;20.992;2022-07-24T01:41:37;99271.15;;;21.28;73.66
56821;BME280;42702;50.178;20.992;2022-07-24T01:44:06;99271.28;;;21.26;73.62
56821;BME280;42702;50.178;20.992;2022-07-24T01:46:34;99275.53;;;21.26;73.50
56821;BME280;42702;50.178;20.992;2022-07-24T01:49:03;99276.59;;;21.26;73.45
56821;BME280;42702;50.178;20.992;2022-07-24T01:51:32;99277.31;;;21.25;73.57
56821;BME280;42702;50.178;20.992;2022-07-24T01:54:00;99276.92;;;21.23;73.48
56821;BME280;42702;50.178;20.992;2022-07-24T01:56:31;99276.62;;;21.18;73.72
56821;BME280;42702;50.178;20.992;2022-07-24T01:58:59;99279.20;;;21.16;73.74
56821;BME280;42702;50.178;20.992;2022-07-24T02:01:34;99283.86;;;21.11;73.81
56821;BME280;42702;50.178;20.992;2022-07-24T02:04:03;99286.98;;;21.05;73.71
56821;BME280;42702;50.178;20.992;2022-07-24T02:06:31;99289.21;;;21.03;73.71
56821;BME280;42702;50.178;20.992;2022-07-24T02:09:00;99290.73;;;21.01;73.78
56821;BME280;42702;50.178;20.992;2022-07-24T02:11:29;99289.80;;;20.98;73.87
56821;BME280;42702;50.178;20.992;2022-07-24T02:13:57;99292.21;;;20.96;74.02
56821;BME280;42702;50.178;20.992;2022-07-24T02:16:28;99296.45;;;20.96;74.10
56821;BME280;42702;50.178;20.992;2022-07-24T02:18:56;99301.69;;;20.98;73.99
56821;BME280;42702;50.178;20.992;2022-07-24T02:21:25;99305.03;;;20.98;73.89
56821;BME280;42702;50.178;20.992;2022-07-24T02:23:53;99305.41;;;20.98;73.83
56821;BME280;42702;50.178;20.992;2022-07-24T02:26:21;99309.98;;;20.95;73.94
56821;BME280;42702;50.178;20.992;2022-07-24T02:28:50;99316.60;;;20.90;73.92
56821;BME280;42702;50.178;20.992;2022-07-24T02:31:18;99318.16;;;20.87;74.14
56821;BME280;42702;50.178;20.992;2022-07-24T02:33:47;99318.66;;;20.87;74.26
56821;BME280;42702;50.178;20.992;2022-07-24T02:36:15;99314.92;;;20.92;74.04
56821;BME280;42702;50.178;20.992;2022-07-24T02:38:43;99317.02;;;20.93;74.08
56821;BME280;42702;50.178;20.992;2022-07-24T02:41:12;99318.50;;;20.87;74.20
56821;BME280;42702;50.178;20.992;2022-07-24T02:43:40;99319.16;;;20.88;74.44
56821;BME280;42702;50.178;20.992;2022-07-24T02:46:08;99321.39;;;20.90;74.42
56821;BME280;42702;50.178;20.992;2022-07-24T02:48:37;99318.44;;;20.93;74.35
56821;BME280;42702;50.178;20.992;2022-07-24T02:51:05;99321.61;;;20.97;74.15
56821;BME280;42702;50.178;20.992;2022-07-24T02:53:33;99321.73;;;20.98;74.35
56821;BME280;42702;50.178;20.992;2022-07-24T02:56:02;99324.66;;;20.96;74.36
56821;BME280;42702;50.178;20.992;2022-07-24T02:58:30;99324.62;;;20.93;74.51
56821;BME280;42702;50.178;20.992;2022-07-24T03:00:58;99325.95;;;20.91;74.58
56821;BME280;42702;50.178;20.992;2022-07-24T03:03:27;99328.83;;;20.86;74.69
56821;BME280;42702;50.178;20.992;2022-07-24T03:05:55;99329.82;;;20.84;74.75
56821;BME280;42702;50.178;20.992;2022-07-24T03:08:23;99336.98;;;20.79;75.03
56821;BME280;42702;50.178;20.992;2022-07-24T03:10:51;99343.52;;;20.75;75.15
56821;BME280;42702;50.178;20.992;2022-07-24T03:13:19;99343.05;;;20.74;75.30
56821;BME280;42702;50.178;20.992;2022-07-24T03:15:48;99339.17;;;20.69;75.39
56821;BME280;42702;50.178;20.992;2022-07-24T03:18:16;99342.33;;;20.66;75.44
56821;BME280;42702;50.178;20.992;2022-07-24T03:20:49;99349.31;;;20.68;75.36
56821;BME280;42702;50.178;20.992;2022-07-24T03:23:17;99356.91;;;20.69;75.41
56821;BME280;42702;50.178;20.992;2022-07-24T03:25:45;99366.28;;;20.69;75.40
56821;BME280;42702;50.178;20.992;2022-07-24T03:28:14;99368.86;;;20.71;75.38
56821;BME280;42702;50.178;20.992;2022-07-24T03:30:43;99368.45;;;20.72;75.38
56821;BME280;42702;50.178;20.992;2022-07-24T03:33:11;99377.23;;;20.74;75.35
56821;BME280;42702;50.178;20.992;2022-07-24T03:35:39;99380.52;;;20.79;75.23
56821;BME280;42702;50.178;20.992;2022-07-24T03:38:08;99389.09;;;20.85;75.20
56821;BME280;42702;50.178;20.992;2022-07-24T03:40:36;99389.61;;;20.86;75.06
56821;BME280;42702;50.178;20.992;2022-07-24T03:43:04;99391.09;;;20.88;75.21
56821;BME280;42702;50.178;20.992;2022-07-24T03:45:32;99397.07;;;20.89;75.06
56821;BME280;42702;50.178;20.992;2022-07-24T03:48:01;99398.09;;;20.86;75.01
56821;BME280;42702;50.178;20.992;2022-07-24T03:50:29;99397.09;;;20.81;74.83
56821;BME280;42702;50.178;20.992;2022-07-24T03:52:58;99399.52;;;20.75;74.88
56821;BME280;42702;50.178;20.992;2022-07-24T03:55:28;99406.49;;;20.69;75.17
56821;BME280;42702;50.178;20.992;2022-07-24T03:57:56;99404.24;;;20.67;75.37
56821;BME280;42702;50.178;20.992;2022-07-24T04:00:24;99403.27;;;20.62;75.33
56821;BME280;42702;50.178;20.992;2022-07-24T04:02:52;99398.55;;;20.56;75.44
56821;BME280;42702;50.178;20.992;2022-07-24T04:05:21;99405.55;;;20.54;75.54
56821;BME280;42702;50.178;20.992;2022-07-24T04:07:49;99408.86;;;20.47;75.60
56821;BME280;42702;50.178;20.992;2022-07-24T04:10:17;99408.63;;;20.36;75.77
56821;BME280;42702;50.178;20.992;2022-07-24T04:12:45;99413.52;;;20.33;75.81
56821;BME280;42702;50.178;20.992;2022-07-24T04:15:13;99416.04;;;20.32;76.01
56821;BME280;42702;50.178;20.992;2022-07-24T04:17:42;99421.28;;;20.34;75.83
56821;BME280;42702;50.178;20.992;2022-07-24T04:20:12;99421.41;;;20.36;75.78
56821;BME280;42702;50.178;20.992;2022-07-24T04:22:40;99421.42;;;20.35;75.97
56821;BME280;42702;50.178;20.992;2022-07-24T04:25:09;99426.65;;;20.37;76.00
56821;BME280;42702;50.178;20.992;2022-07-24T04:27:37;99429.60;;;20.42;76.03
56821;BME280;42702;50.178;20.992;2022-07-24T04:30:06;99433.48;;;20.51;75.99
56821;BME280;42702;50.178;20.992;2022-07-24T04:32:35;99434.20;;;20.59;75.73
56821;BME280;42702;50.178;20.992;2022-07-24T04:35:04;99437.23;;;20.63;75.70
56821;BME280;42702;50.178;20.992;2022-07-24T04:37:33;99442.20;;;20.66;75.62
56821;BME280;42702;50.178;20.992;2022-07-24T04:40:02;99447.81;;;20.68;75.46
56821;BME280;42702;50.178;20.992;2022-07-24T04:42:30;99452.55;;;20.69;75.58
56821;BME280;42702;50.178;20.992;2022-07-24T04:44:59;99456.98;;;20.73;75.58
56821;BME280;42702;50.178;20.992;2022-07-24T04:47:27;99457.91;;;20.80;75.42
56821;BME280;42702;50.178;20.992;2022-07-24T04:49:55;99456.15;;;20.84;75.32
56821;BME280;42702;50.178;20.992;2022-07-24T04:52:23;99459.38;;;20.87;75.39
56821;BME280;42702;50.178;20.992;2022-07-24T04:54:51;99460.28;;;20.90;75.31
56821;BME280;42702;50.178;20.992;2022-07-24T04:57:19;99462.10;;;20.93;75.46
56821;BME280;42702;50.178;20.992;2022-07-24T04:59:48;99468.36;;;20.99;75.34
56821;BME280;42702;50.178;20.992;2022-07-24T05:02:16;99473.45;;;21.04;75.18
56821;BME280;42702;50.178;20.992;2022-07-24T05:04:44;99469.84;;;21.06;74.98
56821;BME280;42702;50.178;20.992;2022-07-24T05:07:13;99476.16;;;21.07;74.88
56821;BME280;42702;50.178;20.992;2022-07-24T05:09:41;99476.23;;;21.06;74.63
56821;BME280;42702;50.178;20.992;2022-07-24T05:12:09;99475.13;;;21.03;74.54
56821;BME280;42702;50.178;20.992;2022-07-24T05:14:37;99474.23;;;20.99;74.31
56821;BME280;42702;50.178;20.992;2022-07-24T05:17:05;99479.30;;;21.00;74.32
56821;BME280;42702;50.178;20.992;2022-07-24T05:19:34;99484.16;;;21.03;74.33
56821;BME280;42702;50.178;20.992;2022-07-24T05:22:02;99485.92;;;21.06;74.21
56821;BME280;42702;50.178;20.992;2022-07-24T05:24:30;99485.23;;;21.06;74.00
56821;BME280;42702;50.178;20.992;2022-07-24T05:26:58;99487.41;;;21.09;74.07
56821;BME280;42702;50.178;20.992;2022-07-24T05:29:27;99489.23;;;21.12;73.86
56821;BME280;42702;50.178;20.992;2022-07-24T05:31:55;99490.27;;;21.16;73.65
56821;BME280;42702;50.178;20.992;2022-07-24T05:34:23;99494.36;;;21.16;73.27
56821;BME280;42702;50.178;20.992;2022-07-24T05:36:52;99497.86;;;21.13;73.47
56821;BME280;42702;50.178;20.992;2022-07-24T05:39:20;99497.36;;;21.13;73.43
56821;BME280;42702;50.178;20.992;2022-07-24T05:41:48;99496.90;;;21.11;73.37
56821;BME280;42702;50.178;20.992;2022-07-24T05:44:16;99491.19;;;21.04;73.25
56821;BME280;42702;50.178;20.992;2022-07-24T05:46:44;99493.23;;;21.06;73.04
56821;BME280;42702;50.178;20.992;2022-07-24T05:49:13;99492.57;;;21.01;72.88
56821;BME280;42702;50.178;20.992;2022-07-24T05:51:41;99491.00;;;20.96;73.10
56821;BME280;42702;50.178;20.992;2022-07-24T05:54:09;99489.33;;;20.95;73.34
56821;BME280;42702;50.178;20.992;2022-07-24T05:56:40;99490.74;;;20.98;73.59
56821;BME280;42702;50.178;20.992;2022-07-24T05:59:09;99489.30;;;21.02;73.25
56821;BME280;42702;50.178;20.992;2022-07-24T06:01:37;99490.08;;;21.05;72.96
56821;BME280;42702;50.178;20.992;2022-07-24T06:04:06;99495.98;;;21.00;72.76
56821;BME280;42702;50.178;20.992;2022-07-24T06:06:34;99496.79;;;20.98;72.73
56821;BME280;42702;50.178;20.992;2022-07-24T06:09:03;99501.16;;;20.95;72.58
56821;BME280;42702;50.178;20.992;2022-07-24T06:11:32;99503.02;;;20.93;72.62
56821;BME280;42702;50.178;20.992;2022-07-24T06:14:01;99500.42;;;20.95;72.63
56821;BME280;42702;50.178;20.992;2022-07-24T06:16:31;99501.55;;;21.02;72.63
56821;BME280;42702;50.178;20.992;2022-07-24T06:18:59;99500.20;;;21.00;72.67
56821;BME280;42702;50.178;20.992;2022-07-24T06:21:28;99500.84;;;20.98;72.61
56821;BME280;42702;50.178;20.992;2022-07-24T06:23:57;99502.08;;;20.95;72.81
56821;BME280;42702;50.178;20.992;2022-07-24T06:26:25;99503.62;;;20.99;72.61
56821;BME280;42702;50.178;20.992;2022-07-24T06:28:53;99502.54;;;21.04;72.39
56821;BME280;42702;50.178;20.992;2022-07-24T06:31:21;99503.83;;;21.06;72.37
56821;BME280;42702;50.178;20.992;2022-07-24T06:33:49;99505.85;;;21.05;72.05
56821;BME280;42702;50.178;20.992;2022-07-24T06:36:17;99506.59;;;21.04;72.06
56821;BME280;42702;50.178;20.992;2022-07-24T06:38:46;99510.61;;;21.02;72.13
56821;BME280;42702;50.178;20.992;2022-07-24T06:41:14;99511.52;;;21.01;72.13
56821;BME280;42702;50.178;20.992;2022-07-24T06:43:42;99511.38;;;21.00;71.88
56821;BME280;42702;50.178;20.992;2022-07-24T06:46:10;99511.91;;;21.00;71.80
56821;BME280;42702;50.178;20.992;2022-07-24T06:48:39;99513.07;;;20.98;71.53
56821;BME280;42702;50.178;20.992;2022-07-24T06:51:07;99515.43;;;20.93;71.72
56821;BME280;42702;50.178;20.992;2022-07-24T06:53:35;99518.83;;;20.88;71.79
56821;BME280;42702;50.178;20.992;2022-07-24T06:56:06;99518.58;;;20.82;71.39
56821;BME280;42702;50.178;20.992;2022-07-24T06:58:34;99522.73;;;20.76;71.05
56821;BME280;42702;50.178;20.992;2022-07-24T07:01:02;99522.09;;;20.79;71.25
56821;BME280;42702;50.178;20.992;2022-07-24T07:03:30;99523.06;;;20.85;71.68
56821;BME280;42702;50.178;20.992;2022-07-24T07:05:58;99521.17;;;20.91;71.51
56821;BME280;42702;50.178;20.992;2022-07-24T07:08:26;99525.51;;;20.98;70.94
56821;BME280;42702;50.178;20.992;2022-07-24T07:10:55;99527.17;;;21.04;70.98
56821;BME280;42702;50.178;20.992;2022-07-24T07:13:23;99523.98;;;21.12;70.76
56821;BME280;42702;50.178;20.992;2022-07-24T07:15:51;99527.55;;;21.23;70.58
56821;BME280;42702;50.178;20.992;2022-07-24T07:18:20;99538.62;;;21.37;70.10
56821;BME280;42702;50.178;20.992;2022-07-24T07:20:48;99536.69;;;21.44;69.72
56821;BME280;42702;50.178;20.992;2022-07-24T07:23:22;99543.89;;;21.42;69.38
56821;BME280;42702;50.178;20.992;2022-07-24T07:25:54;99544.68;;;21.36;69.34
56821;BME280;42702;50.178;20.992;2022-07-24T07:28:22;99545.14;;;21.30;69.25
56821;BME280;42702;50.178;20.992;2022-07-24T07:30:50;99546.35;;;21.27;68.99
56821;BME280;42702;50.178;20.992;2022-07-24T07:33:19;99546.26;;;21.29;69.01
56821;BME280;42702;50.178;20.992;2022-07-24T07:35:47;99544.55;;;21.35;68.55
56821;BME280;42702;50.178;20.992;2022-07-24T07:38:15;99541.09;;;21.41;68.53
56821;BME280;42702;50.178;20.992;2022-07-24T07:40:50;99544.57;;;21.47;67.82
56821;BME280;42702;50.178;20.992;2022-07-24T07:43:19;99547.34;;;21.49;66.22
56821;BME280;42702;50.178;20.992;2022-07-24T07:45:47;99547.25;;;21.46;64.97
56821;BME280;42702;50.178;20.992;2022-07-24T07:48:16;99552.05;;;21.38;65.23
56821;BME280;42702;50.178;20.992;2022-07-24T07:50:44;99551.89;;;21.34;65.29
56821;BME280;42702;50.178;20.992;2022-07-24T07:53:13;99550.38;;;21.36;65.50
56821;BME280;42702;50.178;20.992;2022-07-24T07:55:41;99552.88;;;21.43;65.40
56821;BME280;42702;50.178;20.992;2022-07-24T07:58:10;99558.48;;;21.49;64.97
56821;BME280;42702;50.178;20.992;2022-07-24T08:00:38;99557.67;;;21.59;64.25
56821;BME280;42702;50.178;20.992;2022-07-24T08:03:07;99555.73;;;21.66;63.49
56821;BME280;42702;50.178;20.992;2022-07-24T08:05:35;99554.01;;;21.69;63.79
56821;BME280;42702;50.178;20.992;2022-07-24T08:08:04;99557.10;;;21.75;62.94
56821;BME280;42702;50.178;20.992;2022-07-24T08:10:33;99563.95;;;21.80;62.24
56821;BME280;42702;50.178;20.992;2022-07-24T08:13:01;99564.32;;;21.87;61.62
56821;BME280;42702;50.178;20.992;2022-07-24T08:15:29;99560.27;;;21.91;61.30
56821;BME280;42702;50.178;20.992;2022-07-24T08:17:58;99559.98;;;21.89;61.21
56821;BME280;42702;50.178;20.992;2022-07-24T08:20:27;99566.45;;;21.88;61.83
56821;BME280;42702;50.178;20.992;2022-07-24T08:22:55;99567.94;;;21.86;60.64
56821;BME280;42702;50.178;20.992;2022-07-24T08:25:26;99567.38;;;21.83;60.17
56821;BME280;42702;50.178;20.992;2022-07-24T08:27:55;99570.42;;;21.86;60.28
56821;BME280;42702;50.178;20.992;2022-07-24T08:30:23;99568.08;;;21.90;59.96
56821;BME280;42702;50.178;20.992;2022-07-24T08:32:53;99565.48;;;21.96;60.20
56821;BME280;42702;50.178;20.992;2022-07-24T08:35:22;99564.48;;;22.02;58.89
56821;BME280;42702;50.178;20.992;2022-07-24T08:37:59;99566.69;;;22.08;57.21
56821;BME280;42702;50.178;20.992;2022-07-24T08:40:36;99566.88;;;22.08;57.26
56821;BME280;42702;50.178;20.992;2022-07-24T08:43:07;99569.63;;;22.10;57.40
56821;BME280;42702;50.178;20.992;2022-07-24T08:45:38;99567.60;;;22.15;57.11
56821;BME280;42702;50.178;20.992;2022-07-24T08:48:07;99571.88;;;22.18;56.55
56821;BME280;42702;50.178;20.992;2022-07-24T08:50:41;99577.00;;;22.15;57.33
56821;BME280;42702;50.178;20.992;2022-07-24T08:53:10;99572.71;;;22.20;57.73
56821;BME280;42702;50.178;20.992;2022-07-24T08:55:39;99578.08;;;22.27;58.05
56821;BME280;42702;50.178;20.992;2022-07-24T08:58:07;99575.14;;;22.29;57.98
56821;BME280;42702;50.178;20.992;2022-07-24T09:00:35;99576.15;;;22.26;56.75
56821;BME280;42702;50.178;20.992;2022-07-24T09:03:03;99578.14;;;22.21;55.56
56821;BME280;42702;50.178;20.992;2022-07-24T09:05:32;99571.83;;;22.24;56.08
56821;BME280;42702;50.178;20.992;2022-07-24T09:08:10;99572.91;;;22.27;56.30
56821;BME280;42702;50.178;20.992;2022-07-24T09:10:38;99576.48;;;22.27;56.26
56821;BME280;42702;50.178;20.992;2022-07-24T09:13:15;99578.49;;;22.29;55.57
56821;BME280;42702;50.178;20.992;2022-07-24T09:15:48;99573.17;;;22.29;53.38
56821;BME280;42702;50.178;20.992;2022-07-24T09:18:31;99570.77;;;22.31;53.80
56821;BME280;42702;50.178;20.992;2022-07-24T09:21:12;99571.23;;;22.39;54.43
56821;BME280;42702;50.178;20.992;2022-07-24T09:23:41;99572.50;;;22.53;53.77
56821;BME280;42702;50.178;20.992;2022-07-24T09:26:10;99574.86;;;22.66;53.07
56821;BME280;42702;50.178;20.992;2022-07-24T09:28:56;99574.05;;;22.79;52.78
56821;BME280;42702;50.178;20.992;2022-07-24T09:31:24;99583.20;;;22.84;50.80
56821;BME280;42702;50.178;20.992;2022-07-24T09:33:53;99575.88;;;22.88;51.23
56821;BME280;42702;50.178;20.992;2022-07-24T09:36:21;99576.25;;;22.98;52.11
56821;BME280;42702;50.178;20.992;2022-07-24T09:38:50;99579.11;;;23.09;51.68
56821;BME280;42702;50.178;20.992;2022-07-24T09:41:23;99580.77;;;23.18;51.66
56821;BME280;42702;50.178;20.992;2022-07-24T09:44:00;99581.09;;;23.29;50.99
56821;BME280;42702;50.178;20.992;2022-07-24T09:46:57;99588.41;;;23.28;47.51
56821;BME280;42702;50.178;20.992;2022-07-24T09:49:27;99588.17;;;23.26;48.56
56821;BME280;42702;50.178;20.992;2022-07-24T09:52:14;99583.73;;;23.32;50.04
56821;BME280;42702;50.178;20.992;2022-07-24T09:54:49;99586.98;;;23.38;50.17
56821;BME280;42702;50.178;20.992;2022-07-24T09:57:29;99589.09;;;23.35;48.89
56821;BME280;42702;50.178;20.992;2022-07-24T10:00:00;99591.45;;;23.41;48.65
56821;BME280;42702;50.178;20.992;2022-07-24T10:02:32;99591.40;;;23.52;47.93
56821;BME280;42702;50.178;20.992;2022-07-24T10:05:02;99585.71;;;23.58;46.51
56821;BME280;42702;50.178;20.992;2022-07-24T10:07:31;99581.06;;;23.65;47.40
56821;BME280;42702;50.178;20.992;2022-07-24T10:10:00;99576.96;;;23.75;47.51
56821;BME280;42702;50.178;20.992;2022-07-24T10:12:31;99575.96;;;23.94;49.12
56821;BME280;42702;50.178;20.992;2022-07-24T10:15:00;99573.16;;;24.15;48.22
56821;BME280;42702;50.178;20.992;2022-07-24T10:18:09;99576.04;;;24.11;47.38
56821;BME280;42702;50.178;20.992;2022-07-24T10:20:44;99579.61;;;24.14;46.84
56821;BME280;42702;50.178;20.992;2022-07-24T10:23:23;99577.87;;;24.17;46.15
56821;BME280;42702;50.178;20.992;2022-07-24T10:26:07;99569.95;;;24.28;46.97
56821;BME280;42702;50.178;20.992;2022-07-24T10:28:43;99569.52;;;24.26;46.60
56821;BME280;42702;50.178;20.992;2022-07-24T10:31:13;99573.75;;;24.11;43.94
56821;BME280;42702;50.178;20.992;2022-07-24T10:33:50;99568.03;;;23.89;43.84
56821;BME280;42702;50.178;20.992;2022-07-24T10:36:26;99567.84;;;23.93;45.89
56821;BME280;42702;50.178;20.992;2022-07-24T10:39:05;99569.88;;;24.13;46.39
56821;BME280;42702;50.178;20.992;2022-07-24T10:41:36;99573.28;;;24.13;45.31
56821;BME280;42702;50.178;20.992;2022-07-24T10:44:18;99576.14;;;24.16;44.47
56821;BME280;42702;50.178;20.992;2022-07-24T10:47:02;99570.41;;;24.14;43.16
56821;BME280;42702;50.178;20.992;2022-07-24T10:49:48;99564.25;;;24.18;44.89
56821;BME280;42702;50.178;20.992;2022-07-24T10:52:30;99560.08;;;24.35;45.43
56821;BME280;42702;50.178;20.992;2022-07-24T10:55:31;99563.08;;;24.54;45.43
56821;BME280;42702;50.178;20.992;2022-07-24T10:58:12;99557.17;;;24.73;45.00
56821;BME280;42702;50.178;20.992;2022-07-24T11:00:46;99558.80;;;24.79;43.32
56821;BME280;42702;50.178;20.992;2022-07-24T11:03:25;99557.45;;;24.77;44.14
56821;BME280;42702;50.178;20.992;2022-07-24T11:18:39;99549.15;;;25.20;44.59
56821;BME280;42702;50.178;20.992;2022-07-24T11:26:46;99542.20;;;25.66;43.39
56821;BME280;42702;50.178;20.992;2022-07-24T11:29:20;99539.64;;;25.70;42.83
56821;BME280;42702;50.178;20.992;2022-07-24T11:31:58;99546.32;;;25.63;42.65
56821;BME280;42702;50.178;20.992;2022-07-24T11:34:28;99550.17;;;25.50;43.21
56821;BME280;42702;50.178;20.992;2022-07-24T11:36:58;99546.33;;;25.60;43.15
56821;BME280;42702;50.178;20.992;2022-07-24T11:39:30;99538.63;;;25.66;42.58
56821;BME280;42702;50.178;20.992;2022-07-24T11:42:02;99539.30;;;25.64;42.62
56821;BME280;42702;50.178;20.992;2022-07-24T11:52:35;99536.45;;;25.12;42.69
56821;BME280;42702;50.178;20.992;2022-07-24T11:55:08;99533.91;;;25.13;42.51
56821;BME280;42702;50.178;20.992;2022-07-24T11:57:46;99533.64;;;24.97;41.75
56821;BME280;42702;50.178;20.992;2022-07-24T12:00:34;99531.77;;;24.98;42.82
56821;BME280;42702;50.178;20.992;2022-07-24T12:03:05;99532.38;;;25.03;42.09
56821;BME280;42702;50.178;20.992;2022-07-24T12:05:36;99524.70;;;25.00;42.30
56821;BME280;42702;50.178;20.992;2022-07-24T12:08:21;99527.73;;;25.03;42.06
56821;BME280;42702;50.178;20.992;2022-07-24T12:10:56;99533.48;;;25.16;42.36
56821;BME280;42702;50.178;20.992;2022-07-24T12:13:25;99534.44;;;25.28;42.20
56821;BME280;42702;50.178;20.992;2022-07-24T12:15:53;99534.24;;;25.28;42.42
56821;BME280;42702;50.178;20.992;2022-07-24T12:18:21;99529.50;;;25.41;43.01
56821;BME280;42702;50.178;20.992;2022-07-24T12:21:00;99523.23;;;25.67;42.55
56821;BME280;42702;50.178;20.992;2022-07-24T12:23:29;99527.48;;;25.84;41.88
56821;BME280;42702;50.178;20.992;2022-07-24T12:25:59;99521.02;;;25.90;41.15
56821;BME280;42702;50.178;20.992;2022-07-24T12:28:28;99518.12;;;25.82;41.16
56821;BME280;42702;50.178;20.992;2022-07-24T12:30:56;99521.29;;;25.69;41.38
56821;BME280;42702;50.178;20.992;2022-07-24T12:33:26;99519.73;;;25.71;41.79
56821;BME280;42702;50.178;20.992;2022-07-24T12:36:00;99512.50;;;25.84;41.75
56821;BME280;42702;50.178;20.992;2022-07-24T12:38:33;99509.08;;;25.95;41.26
56821;BME280;42702;50.178;20.992;2022-07-24T12:46:44;99511.65;;;26.29;40.89
56821;BME280;42702;50.178;20.992;2022-07-24T12:52:03;99509.53;;;26.48;40.52
56821;BME280;42702;50.178;20.992;2022-07-24T12:54:45;99506.46;;;26.43;38.97
56821;BME280;42702;50.178;20.992;2022-07-24T12:57:14;99507.58;;;26.42;40.00
56821;BME280;42702;50.178;20.992;2022-07-24T13:00:00;99508.64;;;26.48;40.55
56821;BME280;42702;50.178;20.992;2022-07-24T13:02:30;99505.45;;;26.50;39.53
56821;BME280;42702;50.178;20.992;2022-07-24T13:05:02;99503.51;;;26.41;39.38
56821;BME280;42702;50.178;20.992;2022-07-24T13:07:30;99502.37;;;26.26;39.56
56821;BME280;42702;50.178;20.992;2022-07-24T13:09:59;99500.00;;;26.14;39.48
56821;BME280;42702;50.178;20.992;2022-07-24T13:12:27;99497.04;;;26.07;39.47
56821;BME280;42702;50.178;20.992;2022-07-24T13:14:56;99498.00;;;25.98;39.50
56821;BME280;42702;50.178;20.992;2022-07-24T13:17:24;99495.73;;;26.03;39.59
56821;BME280;42702;50.178;20.992;2022-07-24T13:19:54;99498.56;;;26.11;39.03
56821;BME280;42702;50.178;20.992;2022-07-24T13:22:22;99501.23;;;26.14;37.94
56821;BME280;42702;50.178;20.992;2022-07-24T13:24:52;99494.68;;;26.13;38.64
56821;BME280;42702;50.178;20.992;2022-07-24T13:27:21;99493.30;;;26.21;39.04
56821;BME280;42702;50.178;20.992;2022-07-24T13:29:49;99489.05;;;26.36;39.33
56821;BME280;42702;50.178;20.992;2022-07-24T13:32:17;99488.14;;;26.49;38.98
56821;BME280;42702;50.178;20.992;2022-07-24T13:34:49;99491.39;;;26.57;37.91
56821;BME280;42702;50.178;20.992;2022-07-24T13:37:19;99492.59;;;26.52;38.04
56821;BME280;42702;50.178;20.992;2022-07-24T13:39:48;99492.05;;;26.45;37.24
56821;BME280;42702;50.178;20.992;2022-07-24T13:42:16;99490.16;;;26.38;38.70